createdAt,value
2018-12-16T00:00:42.984Z,0.00
2018-12-16T00:01:43.006Z,0.00
2018-12-16T00:02:42.965Z,0.00
2018-12-16T00:03:42.953Z,0.00
2018-12-16T00:04:49.649Z,0.00
2018-12-16T00:05:43.933Z,0.00
2018-12-16T00:06:42.937Z,0.00
2018-12-16T00:07:42.948Z,0.00
2018-12-16T00:08:42.899Z,0.00
2018-12-16T00:09:42.888Z,0.00
2018-12-16T00:10:42.891Z,0.00
2018-12-16T00:11:42.871Z,0.00
2018-12-16T00:12:42.886Z,0.00
2018-12-16T00:13:42.866Z,0.00
2018-12-16T00:14:42.831Z,0.00
2018-12-16T00:15:42.821Z,0.00
2018-12-16T00:16:42.813Z,0.00
2018-12-16T00:17:42.821Z,0.00
2018-12-16T00:18:42.795Z,0.00
2018-12-16T00:19:42.808Z,0.00
2018-12-16T00:20:42.778Z,0.00
2018-12-16T00:21:42.755Z,0.00
2018-12-16T00:22:42.781Z,0.00
2018-12-16T00:23:42.737Z,0.00
2018-12-16T00:24:42.754Z,0.00
2018-12-16T00:25:42.723Z,0.00
2018-12-16T00:26:42.701Z,0.00
2018-12-16T00:27:42.721Z,0.00
2018-12-16T00:28:42.702Z,0.00
2018-12-16T00:29:42.697Z,0.00
2018-12-16T00:30:42.685Z,0.00
2018-12-16T00:31:42.687Z,0.00
2018-12-16T00:32:42.642Z,0.00
2018-12-16T00:33:42.630Z,0.00
2018-12-16T00:34:42.613Z,0.00
2018-12-16T00:35:42.629Z,0.00
2018-12-16T00:36:42.597Z,0.00
2018-12-16T00:37:42.606Z,0.00
2018-12-16T00:38:42.570Z,0.00
2018-12-16T00:39:42.559Z,0.00
2018-12-16T00:40:42.590Z,0.00
2018-12-16T00:41:42.565Z,0.00
2018-12-16T00:42:42.546Z,0.00
2018-12-16T00:43:42.534Z,0.00
2018-12-16T00:44:42.503Z,0.00
2018-12-16T00:45:42.614Z,0.00
2018-12-16T00:46:42.486Z,0.00
2018-12-16T00:47:42.483Z,0.00
2018-12-16T00:48:42.478Z,0.00
2018-12-16T00:49:42.452Z,0.00
2018-12-16T00:50:42.490Z,0.00
2018-12-16T00:51:42.427Z,0.00
2018-12-16T00:52:42.440Z,0.00
2018-12-16T00:53:42.413Z,0.00
2018-12-16T00:54:42.410Z,0.00
2018-12-16T00:55:49.221Z,0.00
2018-12-16T00:56:43.403Z,0.00
2018-12-16T00:57:42.363Z,0.00
2018-12-16T00:58:42.373Z,0.00
2018-12-16T00:59:42.381Z,0.00
2018-12-16T01:00:42.338Z,0.00
2018-12-16T01:01:42.347Z,0.00
2018-12-16T01:02:42.309Z,0.00
2018-12-16T01:03:42.344Z,0.00
2018-12-16T01:04:42.285Z,0.00
2018-12-16T01:05:42.280Z,0.00
2018-12-16T01:06:42.271Z,0.00
2018-12-16T01:07:42.253Z,0.00
2018-12-16T01:08:42.265Z,0.00
2018-12-16T01:09:42.231Z,0.00
2018-12-16T01:10:42.224Z,0.00
2018-12-16T01:11:42.217Z,0.00
2018-12-16T01:12:42.201Z,0.00
2018-12-16T01:13:42.216Z,0.00
2018-12-16T01:14:42.177Z,0.00
2018-12-16T01:15:42.169Z,0.00
2018-12-16T01:16:42.165Z,0.00
2018-12-16T01:17:42.146Z,0.00
2018-12-16T01:18:42.193Z,0.00
2018-12-16T01:19:42.123Z,0.00
2018-12-16T01:20:42.116Z,0.00
2018-12-16T01:21:42.100Z,0.00
2018-12-16T01:22:43.638Z,0.00
2018-12-16T01:23:42.131Z,0.00
2018-12-16T01:24:42.069Z,0.00
2018-12-16T01:25:42.081Z,0.00
2018-12-16T01:26:42.049Z,0.00
2018-12-16T01:27:42.043Z,0.00
2018-12-16T01:28:42.051Z,0.00
2018-12-16T01:29:42.043Z,0.00
2018-12-16T01:30:42.019Z,0.00
2018-12-16T01:31:41.991Z,0.00
2018-12-16T01:32:41.988Z,0.00
2018-12-16T01:33:41.970Z,0.00
2018-12-16T01:34:42.214Z,0.00
2018-12-16T01:35:41.953Z,0.00
2018-12-16T01:36:41.938Z,0.00
2018-12-16T01:37:41.928Z,0.00
2018-12-16T01:38:41.918Z,0.00
2018-12-16T01:39:41.935Z,0.00
2018-12-16T01:40:41.923Z,0.00
2018-12-16T01:41:41.905Z,0.00
2018-12-16T01:42:41.874Z,0.00
2018-12-16T01:43:41.863Z,0.00
2018-12-16T01:44:41.849Z,0.00
2018-12-16T01:45:41.861Z,0.00
2018-12-16T01:46:41.861Z,0.00
2018-12-16T01:47:41.820Z,0.00
2018-12-16T01:48:41.806Z,0.00
2018-12-16T01:49:41.819Z,0.00
2018-12-16T01:50:41.788Z,0.00
2018-12-16T01:51:41.775Z,0.00
2018-12-16T01:52:41.766Z,0.00
2018-12-16T01:53:41.776Z,0.00
2018-12-16T01:54:41.739Z,0.00
2018-12-16T01:55:41.729Z,0.00
2018-12-16T01:56:41.718Z,0.00
2018-12-16T01:57:41.741Z,0.00
2018-12-16T01:58:41.723Z,0.00
2018-12-16T01:59:41.688Z,0.00
2018-12-16T02:00:41.770Z,0.00
2018-12-16T02:01:50.249Z,0.00
2018-12-16T02:02:41.649Z,0.00
2018-12-16T02:03:41.640Z,0.00
2018-12-16T02:04:41.647Z,0.00
2018-12-16T02:05:41.619Z,0.00
2018-12-16T02:06:50.203Z,0.00
2018-12-16T02:07:41.595Z,0.00
2018-12-16T02:08:41.617Z,0.00
2018-12-16T02:09:41.588Z,0.00
2018-12-16T02:10:41.598Z,0.00
2018-12-16T02:11:41.583Z,0.00
2018-12-16T02:12:41.560Z,0.00
2018-12-16T02:13:41.537Z,0.00
2018-12-16T02:14:41.522Z,0.00
2018-12-16T02:15:41.522Z,0.00
2018-12-16T02:16:41.522Z,0.00
2018-12-16T02:17:41.499Z,0.00
2018-12-16T02:18:41.505Z,0.00
2018-12-16T02:19:41.509Z,0.00
2018-12-16T02:20:41.457Z,0.00
2018-12-16T02:21:41.476Z,0.00
2018-12-16T02:22:41.443Z,0.00
2018-12-16T02:23:41.446Z,0.00
2018-12-16T02:24:41.417Z,0.00
2018-12-16T02:25:41.436Z,0.00
2018-12-16T02:26:41.391Z,0.00
2018-12-16T02:27:41.397Z,0.00
2018-12-16T02:28:41.366Z,0.00
2018-12-16T02:29:41.363Z,0.00
2018-12-16T02:30:41.355Z,0.00
2018-12-16T02:31:41.347Z,0.00
2018-12-16T02:32:41.354Z,0.00
2018-12-16T02:33:41.334Z,0.00
2018-12-16T02:34:41.303Z,0.00
2018-12-16T02:35:41.308Z,0.00
2018-12-16T02:36:41.285Z,0.00
2018-12-16T02:37:41.267Z,0.00
2018-12-16T02:38:41.293Z,0.00
2018-12-16T02:39:41.252Z,0.00
2018-12-16T02:40:41.236Z,0.00
2018-12-16T02:41:41.243Z,0.00
2018-12-16T02:42:41.219Z,0.00
2018-12-16T02:43:41.227Z,0.00
2018-12-16T02:44:41.196Z,0.00
2018-12-16T02:45:41.189Z,0.00
2018-12-16T02:46:41.175Z,0.00
2018-12-16T02:47:41.161Z,0.00
2018-12-16T02:48:41.207Z,0.00
2018-12-16T02:49:41.141Z,0.00
2018-12-16T02:50:41.129Z,0.00
2018-12-16T02:51:41.124Z,0.00
2018-12-16T02:52:41.136Z,0.00
2018-12-16T02:53:41.117Z,0.00
2018-12-16T02:54:41.162Z,0.00
2018-12-16T02:55:41.075Z,0.00
2018-12-16T02:56:41.300Z,0.00
2018-12-16T02:57:41.069Z,0.00
2018-12-16T02:58:41.046Z,0.00
2018-12-16T02:59:41.055Z,0.00
2018-12-16T03:00:41.022Z,0.00
2018-12-16T03:01:41.031Z,0.00
2018-12-16T03:02:41.002Z,0.00
2018-12-16T03:03:41.017Z,0.00
2018-12-16T03:04:41.012Z,0.00
2018-12-16T03:05:40.965Z,0.00
2018-12-16T03:06:40.955Z,0.00
2018-12-16T03:07:40.948Z,0.00
2018-12-16T03:08:40.959Z,0.00
2018-12-16T03:09:40.943Z,0.00
2018-12-16T03:10:40.949Z,0.00
2018-12-16T03:11:40.897Z,0.00
2018-12-16T03:12:40.892Z,0.00
2018-12-16T03:13:40.897Z,0.00
2018-12-16T03:14:40.872Z,0.00
2018-12-16T03:15:40.908Z,0.00
2018-12-16T03:16:40.864Z,0.00
2018-12-16T03:17:40.837Z,0.00
2018-12-16T03:18:40.823Z,0.00
2018-12-16T03:19:40.817Z,0.00
2018-12-16T03:20:40.829Z,0.00
2018-12-16T03:21:40.836Z,0.00
2018-12-16T03:22:40.782Z,0.00
2018-12-16T03:23:40.795Z,0.00
2018-12-16T03:24:40.760Z,0.00
2018-12-16T03:25:40.746Z,0.00
2018-12-16T03:26:40.781Z,0.00
2018-12-16T03:27:40.728Z,0.00
2018-12-16T03:28:40.715Z,0.00
2018-12-16T03:29:40.714Z,0.00
2018-12-16T03:30:40.699Z,0.00
2018-12-16T03:31:40.711Z,0.00
2018-12-16T03:32:40.684Z,0.00
2018-12-16T03:33:40.662Z,0.00
2018-12-16T03:34:40.658Z,0.00
2018-12-16T03:35:40.656Z,0.00
2018-12-16T03:36:40.667Z,0.00
2018-12-16T03:37:40.642Z,0.00
2018-12-16T03:38:40.618Z,0.00
2018-12-16T03:39:40.601Z,0.00
2018-12-16T03:40:40.587Z,0.00
2018-12-16T03:41:40.589Z,0.00
2018-12-16T03:42:40.597Z,0.00
2018-12-16T03:43:40.558Z,0.00
2018-12-16T03:44:40.553Z,0.00
2018-12-16T03:45:40.566Z,0.00
2018-12-16T03:46:40.515Z,0.00
2018-12-16T03:47:40.540Z,0.00
2018-12-16T03:48:40.510Z,0.00
2018-12-16T03:49:40.519Z,0.00
2018-12-16T03:50:40.544Z,0.00
2018-12-16T03:51:40.507Z,0.00
2018-12-16T03:52:40.462Z,0.00
2018-12-16T03:53:40.440Z,0.00
2018-12-16T03:54:40.450Z,0.00
2018-12-16T03:55:40.423Z,0.00
2018-12-16T03:56:40.444Z,0.00
2018-12-16T03:57:40.398Z,0.00
2018-12-16T03:58:40.399Z,0.00
2018-12-16T03:59:40.378Z,0.00
2018-12-16T04:00:40.417Z,0.00
2018-12-16T04:01:40.379Z,0.00
2018-12-16T04:02:40.347Z,0.00
2018-12-16T04:03:40.332Z,0.00
2018-12-16T04:04:40.324Z,0.00
2018-12-16T04:05:40.330Z,0.00
2018-12-16T04:06:40.351Z,0.00
2018-12-16T04:07:40.309Z,0.00
2018-12-16T04:08:40.279Z,0.00
2018-12-16T04:09:40.291Z,0.00
2018-12-16T04:10:40.259Z,0.00
2018-12-16T04:11:40.250Z,0.00
2018-12-16T04:12:40.262Z,0.00
2018-12-16T04:13:40.246Z,0.00
2018-12-16T04:14:41.361Z,0.00
2018-12-16T04:15:40.202Z,0.00
2018-12-16T04:16:40.200Z,0.00
2018-12-16T04:17:40.206Z,0.00
2018-12-16T04:18:40.173Z,0.00
2018-12-16T04:19:40.178Z,0.00
2018-12-16T04:20:40.173Z,0.00
2018-12-16T04:21:40.159Z,0.00
2018-12-16T04:22:40.130Z,0.00
2018-12-16T04:23:40.126Z,0.00
2018-12-16T04:24:40.114Z,0.00
2018-12-16T04:25:40.113Z,0.00
2018-12-16T04:26:40.111Z,0.00
2018-12-16T04:27:40.094Z,0.00
2018-12-16T04:28:40.060Z,0.00
2018-12-16T04:29:40.051Z,0.00
2018-12-16T04:30:40.044Z,0.00
2018-12-16T04:31:40.068Z,0.00
2018-12-16T04:32:40.016Z,0.00
2018-12-16T04:33:40.011Z,0.00
2018-12-16T04:34:40.001Z,0.00
2018-12-16T04:35:40.041Z,0.00
2018-12-16T04:36:39.996Z,0.00
2018-12-16T04:37:39.964Z,0.00
2018-12-16T04:38:39.958Z,0.00
2018-12-16T04:39:39.939Z,0.00
2018-12-16T04:40:39.933Z,0.00
2018-12-16T04:41:39.964Z,0.00
2018-12-16T04:42:39.948Z,0.00
2018-12-16T04:43:39.919Z,0.00
2018-12-16T04:44:39.885Z,0.00
2018-12-16T04:45:39.874Z,0.00
2018-12-16T04:46:39.867Z,0.00
2018-12-16T04:47:39.887Z,0.00
2018-12-16T04:48:39.864Z,0.00
2018-12-16T04:49:39.852Z,0.00
2018-12-16T04:50:39.823Z,0.00
2018-12-16T04:51:39.810Z,0.00
2018-12-16T04:52:39.828Z,0.00
2018-12-16T04:53:39.795Z,0.00
2018-12-16T04:54:39.785Z,0.00
2018-12-16T04:55:39.778Z,0.00
2018-12-16T04:56:39.784Z,0.00
2018-12-16T04:57:39.742Z,0.00
2018-12-16T04:58:39.735Z,0.00
2018-12-16T04:59:39.749Z,0.00
2018-12-16T05:00:39.726Z,0.00
2018-12-16T05:01:39.726Z,0.00
2018-12-16T05:02:39.707Z,0.00
2018-12-16T05:03:39.702Z,0.00
2018-12-16T05:04:39.703Z,0.00
2018-12-16T05:05:39.658Z,0.00
2018-12-16T05:06:39.665Z,0.00
2018-12-16T05:07:39.633Z,0.00
2018-12-16T05:08:39.637Z,0.00
2018-12-16T05:09:39.640Z,0.00
2018-12-16T05:10:39.602Z,0.00
2018-12-16T05:11:39.603Z,0.00
2018-12-16T05:12:39.577Z,0.00
2018-12-16T05:13:39.607Z,0.00
2018-12-16T05:14:39.559Z,0.00
2018-12-16T05:15:39.575Z,0.00
2018-12-16T05:16:39.553Z,0.00
2018-12-16T05:17:39.523Z,0.00
2018-12-16T05:18:39.513Z,0.00
2018-12-16T05:19:39.538Z,0.00
2018-12-16T05:20:39.522Z,0.00
2018-12-16T05:21:39.518Z,0.00
2018-12-16T05:22:39.539Z,0.00
2018-12-16T05:23:42.101Z,0.00
2018-12-16T05:24:39.478Z,0.00
2018-12-16T05:25:39.439Z,0.00
2018-12-16T05:26:39.428Z,0.00
2018-12-16T05:27:39.455Z,0.00
2018-12-16T05:28:39.442Z,0.00
2018-12-16T05:29:39.404Z,0.00
2018-12-16T05:30:39.382Z,0.00
2018-12-16T05:31:39.372Z,0.00
2018-12-16T05:32:39.394Z,0.00
2018-12-16T05:33:39.348Z,0.00
2018-12-16T05:34:39.352Z,0.00
2018-12-16T05:35:39.345Z,0.00
2018-12-16T05:36:39.319Z,0.00
2018-12-16T05:37:39.330Z,0.00
2018-12-16T05:38:39.297Z,0.00
2018-12-16T05:39:39.291Z,0.00
2018-12-16T05:40:39.291Z,0.00
2018-12-16T05:41:39.279Z,0.00
2018-12-16T05:42:39.291Z,0.00
2018-12-16T05:43:39.243Z,0.00
2018-12-16T05:44:39.255Z,0.00
2018-12-16T05:45:39.220Z,0.00
2018-12-16T05:46:39.208Z,0.00
2018-12-16T05:47:39.195Z,0.00
2018-12-16T05:48:39.204Z,0.00
2018-12-16T05:49:39.201Z,0.00
2018-12-16T05:50:39.189Z,0.00
2018-12-16T05:51:39.159Z,0.00
2018-12-16T05:52:39.149Z,0.00
2018-12-16T05:53:39.134Z,0.00
2018-12-16T05:54:39.141Z,0.00
2018-12-16T05:55:39.134Z,0.00
2018-12-16T05:56:39.098Z,0.00
2018-12-16T05:57:39.086Z,0.00
2018-12-16T05:58:39.078Z,0.00
2018-12-16T05:59:39.068Z,0.00
2018-12-16T06:00:39.103Z,0.00
2018-12-16T06:01:39.051Z,0.00
2018-12-16T06:02:39.038Z,0.00
2018-12-16T06:03:39.024Z,0.00
2018-12-16T06:04:39.014Z,0.00
2018-12-16T06:05:39.027Z,0.00
2018-12-16T06:06:39.006Z,0.00
2018-12-16T06:07:38.985Z,0.00
2018-12-16T06:08:38.975Z,0.00
2018-12-16T06:09:39.000Z,0.00
2018-12-16T06:10:38.960Z,0.00
2018-12-16T06:11:38.938Z,0.00
2018-12-16T06:12:38.929Z,0.00
2018-12-16T06:13:38.919Z,0.00
2018-12-16T06:14:38.947Z,0.00
2018-12-16T06:15:38.894Z,0.00
2018-12-16T06:16:38.903Z,0.00
2018-12-16T06:17:38.908Z,0.00
2018-12-16T06:18:38.862Z,0.00
2018-12-16T06:19:38.853Z,0.00
2018-12-16T06:20:38.838Z,0.00
2018-12-16T06:21:38.839Z,0.00
2018-12-16T06:22:38.859Z,0.00
2018-12-16T06:23:38.809Z,0.00
2018-12-16T06:24:38.797Z,0.00
2018-12-16T06:25:38.826Z,0.00
2018-12-16T06:26:38.778Z,0.00
2018-12-16T06:27:38.784Z,0.00
2018-12-16T06:28:38.750Z,0.00
2018-12-16T06:29:38.755Z,0.00
2018-12-16T06:30:38.752Z,0.00
2018-12-16T06:31:38.719Z,0.00
2018-12-16T06:32:38.713Z,0.00
2018-12-16T06:33:38.697Z,0.00
2018-12-16T06:34:38.726Z,0.00
2018-12-16T06:35:38.689Z,0.00
2018-12-16T06:36:38.662Z,0.00
2018-12-16T06:37:38.649Z,0.00
2018-12-16T06:38:38.643Z,0.00
2018-12-16T06:39:38.669Z,0.00
2018-12-16T06:40:38.651Z,0.00
2018-12-16T06:41:38.623Z,0.00
2018-12-16T06:42:38.598Z,0.00
2018-12-16T06:43:38.591Z,0.00
2018-12-16T06:44:38.608Z,0.00
2018-12-16T06:45:38.573Z,0.00
2018-12-16T06:46:38.552Z,0.00
2018-12-16T06:47:38.589Z,0.00
2018-12-16T06:48:38.540Z,4.00
2018-12-16T06:49:38.553Z,4.00
2018-12-16T06:50:38.511Z,0.00
2018-12-16T06:51:38.509Z,0.00
2018-12-16T06:52:38.493Z,4.00
2018-12-16T06:53:38.502Z,4.00
2018-12-16T06:54:38.493Z,0.00
2018-12-16T06:55:43.364Z,4.00
2018-12-16T06:56:39.445Z,0.00
2018-12-16T06:57:38.470Z,4.00
2018-12-16T06:58:38.422Z,8.00
2018-12-16T06:59:38.419Z,4.00
2018-12-16T07:00:38.405Z,4.00
2018-12-16T07:01:38.422Z,8.00
2018-12-16T07:02:38.415Z,8.00
2018-12-16T07:03:38.368Z,8.00
2018-12-16T07:04:38.356Z,12.00
2018-12-16T07:05:38.347Z,12.00
2018-12-16T07:06:38.337Z,12.00
2018-12-16T07:07:38.364Z,16.00
2018-12-16T07:08:38.321Z,20.00
2018-12-16T07:09:38.327Z,20.00
2018-12-16T07:10:38.294Z,24.00
2018-12-16T07:11:38.281Z,24.00
2018-12-16T07:12:38.294Z,28.00
2018-12-16T07:13:38.257Z,32.00
2018-12-16T07:14:38.264Z,36.00
2018-12-16T07:15:38.236Z,36.00
2018-12-16T07:16:38.285Z,40.00
2018-12-16T07:17:38.231Z,44.00
2018-12-16T07:18:38.218Z,48.00
2018-12-16T07:19:38.234Z,56.00
2018-12-16T07:20:38.217Z,56.00
2018-12-16T07:21:38.201Z,64.00
2018-12-16T07:22:38.162Z,68.00
2018-12-16T07:23:38.148Z,72.00
2018-12-16T07:24:38.159Z,76.00
2018-12-16T07:25:38.176Z,84.00
2018-12-16T07:26:38.134Z,88.00
2018-12-16T07:27:38.109Z,92.00
2018-12-16T07:28:38.094Z,104.00
2018-12-16T07:29:38.082Z,116.00
2018-12-16T07:30:38.095Z,128.00
2018-12-16T07:31:38.072Z,144.00
2018-12-16T07:32:38.082Z,160.00
2018-12-16T07:33:38.090Z,172.00
2018-12-16T07:34:38.031Z,184.00
2018-12-16T07:35:38.035Z,196.00
2018-12-16T07:36:38.005Z,204.00
2018-12-16T07:37:38.022Z,212.00
2018-12-16T07:38:38.002Z,216.00
2018-12-16T07:39:38.002Z,220.00
2018-12-16T07:40:37.994Z,224.00
2018-12-16T07:41:37.954Z,232.00
2018-12-16T07:42:37.982Z,236.00
2018-12-16T07:43:37.962Z,244.00
2018-12-16T07:44:37.967Z,252.00
2018-12-16T07:45:37.921Z,264.00
2018-12-16T07:46:37.899Z,272.00
2018-12-16T07:47:37.982Z,276.00
2018-12-16T07:48:37.922Z,284.00
2018-12-16T07:49:37.876Z,292.00
2018-12-16T07:50:37.871Z,292.00
2018-12-16T07:51:37.843Z,300.00
2018-12-16T07:52:37.832Z,300.00
2018-12-16T07:53:37.859Z,300.00
2018-12-16T07:54:37.844Z,304.00
2018-12-16T07:55:37.829Z,308.00
2018-12-16T07:56:37.817Z,312.00
2018-12-16T07:57:37.782Z,320.00
2018-12-16T07:58:37.799Z,324.00
2018-12-16T07:59:37.764Z,332.00
2018-12-16T08:00:38.298Z,340.00
2018-12-16T08:01:37.736Z,348.00
2018-12-16T08:02:37.737Z,356.00
2018-12-16T08:03:37.744Z,368.00
2018-12-16T08:04:37.731Z,376.00
2018-12-16T08:05:37.742Z,392.00
2018-12-16T08:06:37.680Z,408.00
2018-12-16T08:07:37.693Z,424.00
2018-12-16T08:08:37.658Z,448.00
2018-12-16T08:09:37.645Z,472.00
2018-12-16T08:10:37.636Z,496.00
2018-12-16T08:11:37.633Z,520.00
2018-12-16T08:12:37.641Z,552.00
2018-12-16T08:13:37.631Z,580.00
2018-12-16T08:14:37.594Z,624.00
2018-12-16T08:15:37.581Z,660.00
2018-12-16T08:16:37.572Z,696.00
2018-12-16T08:17:37.571Z,732.00
2018-12-16T08:18:37.577Z,756.00
2018-12-16T08:19:37.546Z,780.00
2018-12-16T08:20:37.527Z,796.00
2018-12-16T08:21:37.515Z,808.00
2018-12-16T08:22:37.505Z,824.00
2018-12-16T08:23:37.559Z,844.00
2018-12-16T08:24:37.488Z,864.00
2018-12-16T08:25:37.494Z,896.00
2018-12-16T08:26:37.462Z,936.00
2018-12-16T08:27:37.452Z,972.00
2018-12-16T08:28:37.457Z,1004.00
2018-12-16T08:29:37.464Z,1028.00
2018-12-16T08:30:37.427Z,1044.00
2018-12-16T08:31:45.971Z,1056.00
2018-12-16T08:32:37.395Z,1068.00
2018-12-16T08:33:45.438Z,1072.00
2018-12-16T08:34:37.396Z,1088.00
2018-12-16T08:35:37.364Z,1104.00
2018-12-16T08:36:45.921Z,1112.00
2018-12-16T08:37:37.342Z,1116.00
2018-12-16T08:38:37.362Z,1120.00
2018-12-16T08:39:37.322Z,1132.00
2018-12-16T08:40:37.309Z,1144.00
2018-12-16T08:41:37.301Z,1152.00
2018-12-16T08:42:37.302Z,1156.00
2018-12-16T08:43:37.307Z,1168.00
2018-12-16T08:44:37.313Z,1176.00
2018-12-16T08:45:37.262Z,1192.00
2018-12-16T08:46:37.247Z,1204.00
2018-12-16T08:47:37.253Z,1212.00
2018-12-16T08:48:37.259Z,1224.00
2018-12-16T08:49:37.370Z,1240.00
2018-12-16T08:50:37.200Z,1260.00
2018-12-16T08:51:37.212Z,1276.00
2018-12-16T08:52:37.181Z,1292.00
2018-12-16T08:53:37.168Z,1312.00
2018-12-16T08:54:37.168Z,1344.00
2018-12-16T08:55:37.177Z,1384.00
2018-12-16T08:56:37.136Z,1412.00
2018-12-16T08:57:37.214Z,1420.00
2018-12-16T08:58:37.113Z,1412.00
2018-12-16T08:59:37.105Z,1444.00
2018-12-16T09:00:37.089Z,1408.00
2018-12-16T09:01:37.107Z,1404.00
2018-12-16T09:02:37.069Z,1404.00
2018-12-16T09:03:37.078Z,1408.00
2018-12-16T09:04:37.058Z,1416.00
2018-12-16T09:05:37.065Z,1424.00
2018-12-16T09:06:37.040Z,1440.00
2018-12-16T09:07:37.544Z,1448.00
2018-12-16T09:08:37.005Z,1456.00
2018-12-16T09:09:37.030Z,1464.00
2018-12-16T09:10:36.989Z,1468.00
2018-12-16T09:11:36.991Z,1472.00
2018-12-16T09:12:36.962Z,1472.00
2018-12-16T09:13:36.949Z,1464.00
2018-12-16T09:14:36.967Z,1452.00
2018-12-16T09:15:36.973Z,1432.00
2018-12-16T09:16:37.126Z,1412.00
2018-12-16T09:17:36.905Z,1384.00
2018-12-16T09:18:36.895Z,1352.00
2018-12-16T09:19:36.884Z,1324.00
2018-12-16T09:20:36.902Z,1296.00
2018-12-16T09:21:36.885Z,1276.00
2018-12-16T09:22:36.850Z,1264.00
2018-12-16T09:23:36.850Z,1256.00
2018-12-16T09:24:37.390Z,1252.00
2018-12-16T09:25:37.709Z,1244.00
2018-12-16T09:26:36.831Z,1240.00
2018-12-16T09:27:36.796Z,1220.00
2018-12-16T09:28:36.790Z,1208.00
2018-12-16T09:29:36.792Z,1192.00
2018-12-16T09:30:36.765Z,1188.00
2018-12-16T09:31:36.775Z,1184.00
2018-12-16T09:32:36.766Z,1184.00
2018-12-16T09:33:36.731Z,1172.00
2018-12-16T09:34:36.749Z,1168.00
2018-12-16T09:35:36.752Z,1152.00
2018-12-16T09:36:36.698Z,1124.00
2018-12-16T09:37:36.686Z,1084.00
2018-12-16T09:38:36.675Z,1040.00
2018-12-16T09:39:36.666Z,996.00
2018-12-16T09:40:36.670Z,960.00
2018-12-16T09:41:36.663Z,932.00
2018-12-16T09:42:36.634Z,908.00
2018-12-16T09:43:36.638Z,884.00
2018-12-16T09:44:36.611Z,852.00
2018-12-16T09:45:36.601Z,828.00
2018-12-16T09:46:36.594Z,812.00
2018-12-16T09:47:36.596Z,796.00
2018-12-16T09:48:36.613Z,792.00
2018-12-16T09:49:36.557Z,792.00
2018-12-16T09:50:36.549Z,796.00
2018-12-16T09:51:36.535Z,800.00
2018-12-16T09:52:36.526Z,808.00
2018-12-16T09:53:36.539Z,812.00
2018-12-16T09:54:36.505Z,816.00
2018-12-16T09:55:36.492Z,820.00
2018-12-16T09:56:36.481Z,816.00
2018-12-16T09:57:36.510Z,820.00
2018-12-16T09:58:36.458Z,824.00
2018-12-16T09:59:36.449Z,820.00
2018-12-16T10:00:36.441Z,828.00
2018-12-16T10:01:36.430Z,844.00
2018-12-16T10:02:36.437Z,868.00
2018-12-16T10:03:36.403Z,896.00
2018-12-16T10:04:36.393Z,920.00
2018-12-16T10:05:36.381Z,944.00
2018-12-16T10:06:36.371Z,952.00
2018-12-16T10:07:36.391Z,956.00
2018-12-16T10:08:36.351Z,956.00
2018-12-16T10:09:36.343Z,956.00
2018-12-16T10:10:36.333Z,952.00
2018-12-16T10:11:36.327Z,944.00
2018-12-16T10:12:36.327Z,924.00
2018-12-16T10:13:36.294Z,900.00
2018-12-16T10:14:36.292Z,876.00
2018-12-16T10:15:36.300Z,840.00
2018-12-16T10:16:36.271Z,796.00
2018-12-16T10:17:36.284Z,760.00
2018-12-16T10:18:36.297Z,740.00
2018-12-16T10:19:36.262Z,748.00
2018-12-16T10:20:36.298Z,764.00
2018-12-16T10:21:36.214Z,796.00
2018-12-16T10:22:36.261Z,816.00
2018-12-16T10:23:36.185Z,832.00
2018-12-16T10:24:36.202Z,848.00
2018-12-16T10:25:36.167Z,864.00
2018-12-16T10:26:36.240Z,888.00
2018-12-16T10:27:36.148Z,912.00
2018-12-16T10:28:36.158Z,948.00
2018-12-16T10:29:36.123Z,992.00
2018-12-16T10:30:36.108Z,1040.00
2018-12-16T10:31:36.102Z,1084.00
2018-12-16T10:32:36.114Z,1120.00
2018-12-16T10:33:36.080Z,1132.00
2018-12-16T10:34:36.066Z,1120.00
2018-12-16T10:35:36.055Z,1104.00
2018-12-16T10:36:36.042Z,1076.00
2018-12-16T10:37:36.066Z,1060.00
2018-12-16T10:38:36.029Z,1056.00
2018-12-16T10:39:36.046Z,1048.00
2018-12-16T10:40:36.002Z,1044.00
2018-12-16T10:41:35.991Z,1040.00
2018-12-16T10:42:35.978Z,1024.00
2018-12-16T10:43:35.968Z,1016.00
2018-12-16T10:44:35.985Z,1004.00
2018-12-16T10:45:35.949Z,1000.00
2018-12-16T10:46:35.935Z,996.00
2018-12-16T10:47:35.962Z,1004.00
2018-12-16T10:48:35.913Z,1032.00
2018-12-16T10:49:35.921Z,1072.00
2018-12-16T10:50:35.893Z,1120.00
2018-12-16T10:51:35.901Z,1168.00
2018-12-16T10:52:35.900Z,1208.00
2018-12-16T10:53:36.633Z,1244.00
2018-12-16T10:54:35.849Z,1280.00
2018-12-16T10:55:35.838Z,1288.00
2018-12-16T10:56:35.851Z,1296.00
2018-12-16T10:57:35.821Z,1296.00
2018-12-16T10:58:35.802Z,1288.00
2018-12-16T10:59:35.821Z,1300.00
2018-12-16T11:00:35.782Z,1324.00
2018-12-16T11:01:35.770Z,1340.00
2018-12-16T11:02:35.764Z,1332.00
2018-12-16T11:03:35.770Z,1316.00
2018-12-16T11:04:35.752Z,1296.00
2018-12-16T11:05:35.726Z,1280.00
2018-12-16T11:06:35.715Z,1268.00
2018-12-16T11:07:35.727Z,1260.00
2018-12-16T11:08:35.701Z,1256.00
2018-12-16T11:09:35.684Z,1248.00
2018-12-16T11:10:35.672Z,1252.00
2018-12-16T11:11:35.693Z,1216.00
2018-12-16T11:12:35.677Z,1280.00
2018-12-16T11:13:35.640Z,1340.00
2018-12-16T11:14:35.664Z,1392.00
2018-12-16T11:15:35.618Z,1468.00
2018-12-16T11:16:35.608Z,1496.00
2018-12-16T11:17:35.665Z,1552.00
2018-12-16T11:18:35.636Z,1600.00
2018-12-16T11:19:35.573Z,1668.00
2018-12-16T11:20:35.569Z,1728.00
2018-12-16T11:21:35.557Z,1788.00
2018-12-16T11:22:35.594Z,1848.00
2018-12-16T11:23:35.529Z,1912.00
2018-12-16T11:24:35.525Z,1952.00
2018-12-16T11:25:35.510Z,1948.00
2018-12-16T11:26:35.531Z,1944.00
2018-12-16T11:27:35.536Z,1932.00
2018-12-16T11:28:35.507Z,1848.00
2018-12-16T11:29:35.465Z,1756.00
2018-12-16T11:30:35.482Z,1688.00
2018-12-16T11:31:35.463Z,1628.00
2018-12-16T11:32:36.545Z,1644.00
2018-12-16T11:33:35.453Z,1760.00
2018-12-16T11:34:35.409Z,1924.00
2018-12-16T11:35:35.422Z,2084.00
2018-12-16T11:36:35.403Z,2160.00
2018-12-16T11:37:35.383Z,2116.00
2018-12-16T11:38:35.391Z,2060.00
2018-12-16T11:39:35.355Z,2088.00
2018-12-16T11:40:35.343Z,2084.00
2018-12-16T11:41:35.342Z,2096.00
2018-12-16T11:42:35.332Z,2088.00
2018-12-16T11:43:35.344Z,2020.00
2018-12-16T11:44:35.327Z,1956.00
2018-12-16T11:45:35.365Z,1896.00
2018-12-16T11:46:35.281Z,1840.00
2018-12-16T11:47:35.266Z,1776.00
2018-12-16T11:48:35.259Z,1708.00
2018-12-16T11:49:35.275Z,1608.00
2018-12-16T11:50:35.277Z,1536.00
2018-12-16T11:51:35.225Z,1536.00
2018-12-16T11:52:35.214Z,1572.00
2018-12-16T11:53:35.287Z,1564.00
2018-12-16T11:54:35.196Z,1492.00
2018-12-16T11:55:43.252Z,1480.00
2018-12-16T11:56:35.199Z,1500.00
2018-12-16T11:57:35.157Z,1480.00
2018-12-16T11:58:42.180Z,1448.00
2018-12-16T11:59:35.188Z,1388.00
2018-12-16T12:00:35.235Z,1348.00
2018-12-16T12:01:35.120Z,1328.00
2018-12-16T12:02:35.138Z,1352.00
2018-12-16T12:03:35.109Z,1416.00
2018-12-16T12:04:35.082Z,1512.00
2018-12-16T12:05:35.077Z,1616.00
2018-12-16T12:06:35.064Z,1708.00
2018-12-16T12:07:35.081Z,1752.00
2018-12-16T12:08:35.041Z,1792.00
2018-12-16T12:09:35.071Z,1840.00
2018-12-16T12:10:35.093Z,1964.00
2018-12-16T12:11:35.023Z,2184.00
2018-12-16T12:12:35.025Z,2428.00
2018-12-16T12:13:34.992Z,2616.00
2018-12-16T12:14:34.979Z,2784.00
2018-12-16T12:15:34.973Z,2952.00
2018-12-16T12:16:34.959Z,3120.00
2018-12-16T12:17:34.959Z,3244.00
2018-12-16T12:18:34.939Z,3320.00
2018-12-16T12:19:34.929Z,3360.00
2018-12-16T12:20:34.939Z,3388.00
2018-12-16T12:21:34.910Z,3388.00
2018-12-16T12:22:34.937Z,3348.00
2018-12-16T12:23:34.883Z,3300.00
2018-12-16T12:24:34.885Z,3264.00
2018-12-16T12:25:34.879Z,3232.00
2018-12-16T12:26:34.896Z,3204.00
2018-12-16T12:27:34.849Z,3160.00
2018-12-16T12:28:34.823Z,3116.00
2018-12-16T12:29:34.838Z,3064.00
2018-12-16T12:30:34.804Z,3000.00
2018-12-16T12:31:42.472Z,2956.00
2018-12-16T12:32:41.815Z,2912.00
2018-12-16T12:33:34.771Z,2868.00
2018-12-16T12:34:34.793Z,2816.00
2018-12-16T12:35:34.745Z,2788.00
2018-12-16T12:36:34.741Z,2780.00
2018-12-16T12:37:35.314Z,2756.00
2018-12-16T12:38:34.715Z,2720.00
2018-12-16T12:39:34.725Z,2684.00
2018-12-16T12:40:34.691Z,2648.00
2018-12-16T12:41:34.683Z,2600.00
2018-12-16T12:42:34.677Z,2496.00
2018-12-16T12:43:34.661Z,2388.00
2018-12-16T12:44:34.685Z,2288.00
2018-12-16T12:45:34.639Z,2232.00
2018-12-16T12:46:34.626Z,2220.00
2018-12-16T12:47:34.622Z,2204.00
2018-12-16T12:48:34.629Z,2172.00
2018-12-16T12:49:34.595Z,2144.00